Time;durP1;ratioP1;P1;durP2;ratioP2;P2;SDS_P1;SDS_P2;PMS_P1;PMS_P2;Temp;Humidity;BMP_temperature;BMP_pressure;BME280_temperature;BME280_humidity;BME280_pressure;Samples;Min_cycle;Max_cycle;Signal;HPM_P1;HPM_P2
2023/06/30 00:04:54;;;;;;;5.28;3.63;;;16.40;99.90;;;;;;10338532;28;20608;-82
2023/06/30 00:09:56;;;;;;;8.55;4.25;;;16.50;99.90;;;;;;10370146;28;20236;-83
2023/06/30 00:15:00;;;;;;;8.05;4.50;;;16.60;99.90;;;;;;10330196;28;20700;-82
2023/06/30 00:20:05;;;;;;;3.78;3.30;;;16.70;99.90;;;;;;10348404;28;20251;-82
2023/06/30 00:25:08;;;;;;;4.22;3.85;;;16.90;99.90;;;;;;10370056;28;20282;-82
2023/06/30 00:30:13;;;;;;;5.05;4.60;;;16.90;99.90;;;;;;10343396;28;20635;-83
2023/06/30 00:35:16;;;;;;;5.53;4.63;;;16.80;99.90;;;;;;10332623;28;20754;-81
2023/06/30 00:40:18;;;;;;;5.85;3.92;;;16.90;99.90;;;;;;10371165;28;20271;-81
2023/06/30 00:45:21;;;;;;;7.00;4.95;;;17.00;99.90;;;;;;10368740;28;20271;-81
2023/06/30 00:50:25;;;;;;;7.50;3.90;;;16.90;99.90;;;;;;10357349;28;20268;-81
2023/06/30 00:55:28;;;;;;;8.15;4.43;;;17.10;99.90;;;;;;10339804;28;20684;-81
2023/06/30 01:00:31;;;;;;;6.75;4.20;;;17.30;99.90;;;;;;10368330;28;20689;-81
2023/06/30 01:06:00;;;;;;;9.63;4.78;;;17.30;99.90;;;;;;10368333;28;20268;-81
2023/06/30 01:11:04;;;;;;;5.30;4.65;;;17.20;99.90;;;;;;10315799;28;20695;-81
2023/06/30 01:16:09;;;;;;;8.15;5.53;;;17.10;99.90;;;;;;10308342;28;20308;-81
2023/06/30 01:21:13;;;;;;;8.82;4.82;;;17.20;99.90;;;;;;10337962;28;20635;-81
2023/06/30 01:26:16;;;;;;;6.43;4.75;;;17.20;99.90;;;;;;10310880;28;20322;-81
2023/06/30 01:31:20;;;;;;;8.75;4.93;;;17.20;99.90;;;;;;10325276;28;20311;-81
2023/06/30 01:36:22;;;;;;;6.32;4.60;;;17.20;99.90;;;;;;10327203;28;20676;-81
2023/06/30 01:41:26;;;;;;;8.00;5.43;;;17.20;99.90;;;;;;10326310;28;20240;-81
2023/06/30 01:46:29;;;;;;;5.38;4.47;;;17.30;99.90;;;;;;10341444;28;20268;-82
2023/06/30 01:51:31;;;;;;;8.90;5.43;;;17.30;99.90;;;;;;10324925;28;20236;-82
2023/06/30 01:56:35;;;;;;;5.95;5.10;;;17.20;99.90;;;;;;10359484;28;20272;-82
2023/06/30 02:01:37;;;;;;;8.25;4.68;;;17.20;99.90;;;;;;10350046;28;20294;-81
2023/06/30 02:06:42;;;;;;;5.97;4.28;;;17.20;99.90;;;;;;10322931;28;20688;-81
2023/06/30 02:11:46;;;;;;;7.72;4.28;;;17.30;99.90;;;;;;10325378;28;20293;-81
2023/06/30 02:16:51;;;;;;;6.13;4.72;;;17.30;99.90;;;;;;10324235;28;20589;-81
2023/06/30 02:21:54;;;;;;;10.20;5.50;;;17.30;99.90;;;;;;10324035;28;20272;-82
2023/06/30 02:26:56;;;;;;;4.45;3.33;;;17.30;99.90;;;;;;10339153;28;20314;-82
2023/06/30 02:31:59;;;;;;;6.43;4.75;;;17.60;99.90;;;;;;10332731;28;20656;-81
2023/06/30 02:37:01;;;;;;;8.32;5.15;;;17.70;99.90;;;;;;10335109;28;20244;-81
2023/06/30 02:42:04;;;;;;;9.05;5.35;;;17.70;99.90;;;;;;10335689;28;20240;-82
2023/06/30 02:47:07;;;;;;;8.05;5.13;;;17.60;99.90;;;;;;10356888;28;20270;-82
2023/06/30 02:52:10;;;;;;;7.57;4.60;;;17.50;99.90;;;;;;10375552;28;21114;-82
2023/06/30 02:57:13;;;;;;;8.35;4.10;;;17.50;99.90;;;;;;10374187;28;20683;-82
2023/06/30 03:02:16;;;;;;;4.55;3.58;;;17.60;99.90;;;;;;10320807;28;20220;-82
2023/06/30 03:07:19;;;;;;;6.82;5.25;;;17.80;99.90;;;;;;10346072;28;20260;-82
2023/06/30 03:12:22;;;;;;;10.00;5.45;;;17.90;99.90;;;;;;10338640;28;20232;-82
2023/06/30 03:17:25;;;;;;;13.00;5.68;;;17.80;99.90;;;;;;10320955;28;20240;-82
2023/06/30 03:22:27;;;;;;;8.18;5.47;;;17.70;99.90;;;;;;10337571;28;20732;-82
2023/06/30 03:27:30;;;;;;;12.88;6.20;;;17.70;99.90;;;;;;10370421;28;20313;-82
2023/06/30 03:32:33;;;;;;;9.55;5.85;;;17.70;99.90;;;;;;10377578;28;20243;-82
2023/06/30 03:37:35;;;;;;;17.08;5.93;;;17.60;99.90;;;;;;10379095;28;20301;-82
2023/06/30 03:42:38;;;;;;;10.57;6.22;;;17.70;99.90;;;;;;10360267;28;20640;-82
2023/06/30 03:47:42;;;;;;;11.77;5.93;;;17.60;99.90;;;;;;10342850;28;20276;-82
2023/06/30 03:52:45;;;;;;;13.52;6.45;;;17.80;99.90;;;;;;10336665;28;20235;-82
2023/06/30 03:57:47;;;;;;;10.52;6.88;;;17.80;99.90;;;;;;10329722;28;20232;-83
2023/06/30 04:02:50;;;;;;;7.15;5.13;;;17.80;99.90;;;;;;10345104;28;20291;-82
2023/06/30 04:07:53;;;;;;;6.40;5.72;;;18.00;99.90;;;;;;10350437;28;20326;-82
2023/06/30 04:12:55;;;;;;;9.82;5.88;;;18.20;99.90;;;;;;10331130;28;20240;-82
2023/06/30 04:17:58;;;;;;;7.28;6.55;;;18.20;99.90;;;;;;10329677;28;20311;-82
2023/06/30 04:23:01;;;;;;;10.15;7.70;;;18.20;99.90;;;;;;10329219;28;20260;-82
2023/06/30 04:28:03;;;;;;;9.35;7.53;;;18.20;99.90;;;;;;10330319;28;20303;-82
2023/06/30 04:33:06;;;;;;;15.07;6.85;;;18.20;99.90;;;;;;10330140;28;20948;-82
2023/06/30 04:38:08;;;;;;;14.85;6.78;;;18.20;99.90;;;;;;10331975;28;20263;-82
2023/06/30 04:43:12;;;;;;;10.73;7.22;;;18.20;99.90;;;;;;10320987;28;20249;-82
2023/06/30 04:48:15;;;;;;;7.20;5.40;;;18.20;99.90;;;;;;10329941;28;20355;-82
2023/06/30 04:53:17;;;;;;;12.32;6.57;;;18.40;99.90;;;;;;10332667;28;20232;-82
2023/06/30 04:58:20;;;;;;;10.20;7.35;;;18.70;99.90;;;;;;10361659;28;20244;-81
2023/06/30 05:03:22;;;;;;;13.90;7.55;;;19.00;99.90;;;;;;10340239;28;20248;-82
2023/06/30 05:08:25;;;;;;;5.38;4.93;;;19.40;99.90;;;;;;10326325;28;20260;-82
2023/06/30 05:13:28;;;;;;;6.72;5.40;;;19.70;99.90;;;;;;10343863;28;20299;-83
2023/06/30 05:18:30;;;;;;;14.23;7.80;;;20.00;99.90;;;;;;10327207;28;20299;-83
2023/06/30 05:23:34;;;;;;;9.80;7.22;;;20.40;99.90;;;;;;10331410;28;20208;-83
2023/06/30 05:28:36;;;;;;;7.43;6.25;;;20.80;99.90;;;;;;10369479;28;20260;-83
2023/06/30 05:33:39;;;;;;;6.95;5.80;;;21.20;99.90;;;;;;10365285;28;20275;-83
2023/06/30 05:38:42;;;;;;;12.85;9.15;;;21.50;99.90;;;;;;10368286;28;20243;-83
2023/06/30 05:43:44;;;;;;;8.88;7.80;;;21.80;99.90;;;;;;10339624;28;20236;-83
2023/06/30 05:48:46;;;;;;;11.68;7.93;;;22.00;99.90;;;;;;10326161;28;20283;-83
2023/06/30 05:53:49;;;;;;;4.45;4.05;;;22.20;98.70;;;;;;10330501;28;20705;-83
2023/06/30 05:58:52;;;;;;;8.20;5.63;;;22.50;98.20;;;;;;10327299;28;20291;-83
2023/06/30 06:03:54;;;;;;;7.05;6.35;;;22.70;96.30;;;;;;10327352;28;20248;-83
2023/06/30 06:08:57;;;;;;;8.48;5.28;;;22.90;95.00;;;;;;10351422;28;20282;-83
2023/06/30 06:14:00;;;;;;;10.55;6.30;;;23.10;94.50;;;;;;10367488;28;20296;-83
2023/06/30 06:19:02;;;;;;;7.03;6.32;;;23.20;93.70;;;;;;10362350;28;20244;-83
2023/06/30 06:24:07;;;;;;;9.07;4.38;;;23.40;93.50;;;;;;10338417;28;20240;-83
2023/06/30 06:29:09;;;;;;;8.52;4.38;;;23.50;92.60;;;;;;10362324;28;20244;-83
2023/06/30 06:34:12;;;;;;;8.95;5.65;;;23.60;91.90;;;;;;10365249;28;20286;-83
2023/06/30 06:39:15;;;;;;;6.00;5.50;;;23.60;92.10;;;;;;10367137;28;20228;-83
2023/06/30 06:44:17;;;;;;;5.53;4.55;;;23.80;91.20;;;;;;10355920;28;20241;-83
2023/06/30 06:49:20;;;;;;;5.15;4.63;;;23.90;90.80;;;;;;10322222;28;20257;-83
2023/06/30 06:54:22;;;;;;;4.22;3.83;;;23.90;91.10;;;;;;10324262;28;20251;-83
2023/06/30 06:59:25;;;;;;;4.47;3.65;;;24.00;89.90;;;;;;10324183;28;20612;-83
2023/06/30 07:04:28;;;;;;;3.85;3.55;;;24.10;90.30;;;;;;10324922;28;20240;-83
2023/06/30 07:09:30;;;;;;;4.65;3.55;;;24.10;87.80;;;;;;10325802;28;20236;-83
2023/06/30 07:14:33;;;;;;;4.38;4.00;;;24.20;86.80;;;;;;10324528;28;20715;-83
2023/06/30 07:19:36;;;;;;;5.07;3.92;;;24.30;85.80;;;;;;10345733;28;20653;-83
2023/06/30 07:24:38;;;;;;;3.33;3.00;;;24.30;83.20;;;;;;10368073;28;20630;-83
2023/06/30 07:29:49;;;;;;;4.50;4.10;;;24.40;83.40;;;;;;10371436;28;20637;-83
2023/06/30 07:34:51;;;;;;;3.88;3.47;;;24.60;80.70;;;;;;10372438;28;20627;-83
2023/06/30 07:39:54;;;;;;;5.93;4.20;;;24.60;78.30;;;;;;10343059;28;20258;-86
2023/06/30 07:45:14;;;;;;;4.60;3.95;;;24.70;77.80;;;;;;10343197;28;20264;-83
2023/06/30 07:50:17;;;;;;;4.38;3.67;;;24.80;77.90;;;;;;10372388;28;20816;-83
2023/06/30 07:55:20;;;;;;;4.43;3.55;;;24.90;74.90;;;;;;10341492;28;20299;-83
2023/06/30 08:00:28;;;;;;;3.42;3.08;;;25.10;74.40;;;;;;10289252;28;20708;-83
2023/06/30 08:05:31;;;;;;;6.60;3.80;;;25.10;73.60;;;;;;10327746;28;20264;-83
2023/06/30 08:10:34;;;;;;;3.58;3.28;;;25.10;72.00;;;;;;10345050;28;20248;-83
2023/06/30 08:15:40;;;;;;;3.80;3.50;;;25.20;72.00;;;;;;10329081;28;20261;-82
2023/06/30 08:20:43;;;;;;;3.95;3.55;;;25.20;69.40;;;;;;10330614;28;20650;-83
2023/06/30 08:25:46;;;;;;;5.85;3.05;;;25.20;70.80;;;;;;10366375;28;20382;-82
2023/06/30 08:30:49;;;;;;;5.10;3.80;;;25.30;71.10;;;;;;10365724;28;20232;-82
2023/06/30 08:35:52;;;;;;;4.43;3.75;;;25.30;67.50;;;;;;10327355;28;20249;-81
2023/06/30 08:40:55;;;;;;;3.63;3.33;;;25.30;69.30;;;;;;10351921;28;20243;-82
2023/06/30 08:45:59;;;;;;;4.40;4.00;;;25.30;69.60;;;;;;10366935;28;20685;-83
2023/06/30 08:51:03;;;;;;;5.07;3.83;;;25.30;68.40;;;;;;10356106;28;20722;-83
2023/06/30 08:56:07;;;;;;;3.58;3.25;;;25.20;68.60;;;;;;10352881;28;20240;-82
2023/06/30 09:01:12;;;;;;;5.75;3.35;;;25.30;68.00;;;;;;10327998;28;20248;-83
2023/06/30 09:06:15;;;;;;;3.50;3.20;;;25.30;67.10;;;;;;10327180;28;20674;-84
2023/06/30 09:11:22;;;;;;;3.88;3.38;;;25.20;67.30;;;;;;10363986;28;20612;-82
2023/06/30 09:16:25;;;;;;;5.40;3.60;;;25.10;66.70;;;;;;10368980;28;20244;-83
2023/06/30 09:21:27;;;;;;;6.95;3.55;;;25.10;67.80;;;;;;10365903;28;20251;-82
2023/06/30 09:26:34;;;;;;;3.50;3.17;;;24.90;68.80;;;;;;10361593;28;20318;-83
2023/06/30 09:31:37;;;;;;;3.55;3.25;;;24.80;68.70;;;;;;10346624;28;20314;-83
2023/06/30 09:36:50;;;;;;;3.55;3.35;;;24.80;70.80;;;;;;10338332;28;20295;-83
2023/06/30 09:41:52;;;;;;;4.20;3.55;;;24.70;71.90;;;;;;10350557;28;20244;-84
2023/06/30 09:46:55;;;;;;;11.00;3.97;;;24.70;71.00;;;;;;10325992;28;20276;-84
2023/06/30 09:52:03;;;;;;;7.45;3.97;;;24.60;70.80;;;;;;10323031;28;20708;-84
2023/06/30 09:57:06;;;;;;;7.60;3.42;;;24.60;71.90;;;;;;10355587;28;20232;-82
2023/06/30 10:02:10;;;;;;;10.80;4.20;;;24.70;71.40;;;;;;10344575;28;20284;-84
2023/06/30 10:07:14;;;;;;;5.43;3.80;;;24.70;70.50;;;;;;10356075;28;20337;-84
2023/06/30 10:12:18;;;;;;;7.28;4.35;;;24.60;71.50;;;;;;10362925;28;20266;-83
2023/06/30 10:17:21;;;;;;;5.90;4.65;;;24.40;67.50;;;;;;10363160;28;20650;-82
2023/06/30 10:22:23;;;;;;;8.55;4.40;;;24.40;72.60;;;;;;10333289;28;20711;-83
2023/06/30 10:27:27;;;;;;;4.10;3.70;;;24.40;72.20;;;;;;10324767;28;20292;-83
2023/06/30 10:32:29;;;;;;;4.20;3.70;;;24.30;72.50;;;;;;10323354;28;20248;-83
2023/06/30 10:37:34;;;;;;;7.75;4.05;;;24.20;73.60;;;;;;10323598;28;20245;-82
2023/06/30 10:42:37;;;;;;;6.28;4.10;;;24.30;73.50;;;;;;10349527;28;20612;-83
2023/06/30 10:47:40;;;;;;;5.68;4.60;;;24.40;74.10;;;;;;10337391;28;20331;-83
2023/06/30 10:52:53;;;;;;;6.70;3.83;;;24.50;76.00;;;;;;10325681;28;20241;-83
2023/06/30 10:57:57;;;;;;;9.93;4.70;;;24.40;77.20;;;;;;10327895;28;20625;-83
2023/06/30 11:03:03;;;;;;;4.50;4.10;;;24.40;75.80;;;;;;10332332;28;20686;-82
2023/06/30 11:08:07;;;;;;;5.00;4.60;;;24.40;74.70;;;;;;10366309;28;20313;-81
2023/06/30 11:13:10;;;;;;;4.93;4.40;;;24.40;76.00;;;;;;10373764;28;20656;-82
2023/06/30 11:18:20;;;;;;;5.55;4.70;;;24.60;77.40;;;;;;10370615;28;20247;-82
2023/06/30 11:23:28;;;;;;;9.50;4.70;;;24.70;73.90;;;;;;10372380;28;20240;-82
2023/06/30 11:28:31;;;;;;;4.68;4.22;;;24.90;75.00;;;;;;10345459;28;20264;-81
2023/06/30 11:33:39;;;;;;;5.80;4.68;;;24.90;71.40;;;;;;10356627;28;20267;-83
2023/06/30 11:38:49;;;;;;;11.32;5.72;;;24.90;70.60;;;;;;10365147;28;20247;-83
2023/06/30 11:43:56;;;;;;;5.32;4.88;;;24.80;71.40;;;;;;10371944;28;20239;-83
2023/06/30 11:49:00;;;;;;;4.78;4.35;;;24.70;73.00;;;;;;10370567;28;20263;-84
2023/06/30 11:54:03;;;;;;;5.25;4.00;;;24.60;72.50;;;;;;10358388;28;20826;-83
2023/06/30 11:59:07;;;;;;;5.90;5.40;;;24.60;73.20;;;;;;10341690;28;20398;-83
2023/06/30 12:04:09;;;;;;;5.85;4.97;;;24.60;74.50;;;;;;10369720;28;20805;-83
2023/06/30 12:09:12;;;;;;;4.88;4.40;;;24.80;73.30;;;;;;10367933;28;20322;-82
2023/06/30 12:14:16;;;;;;;5.55;5.05;;;25.00;70.10;;;;;;10334996;28;20291;-86
2023/06/30 12:19:28;;;;;;;5.82;4.68;;;25.10;69.60;;;;;;10347365;28;20279;-84
2023/06/30 12:24:34;;;;;;;7.43;6.28;;;25.30;68.90;;;;;;10346274;28;20271;-83
2023/06/30 12:29:46;;;;;;;6.13;5.60;;;25.30;64.90;;;;;;10362319;28;20264;-85
2023/06/30 12:34:48;;;;;;;5.00;4.50;;;25.40;66.40;;;;;;10366736;28;20243;-86
2023/06/30 12:39:51;;;;;;;4.63;4.32;;;25.40;67.10;;;;;;10339315;28;20236;-85
2023/06/30 12:44:53;;;;;;;4.47;4.07;;;25.40;66.90;;;;;;10365089;28;20252;-82
2023/06/30 12:49:56;;;;;;;87.65;9.77;;;25.40;64.40;;;;;;10370122;28;20761;-82
2023/06/30 12:55:01;;;;;;;6.45;5.03;;;25.10;58.20;;;;;;10369637;28;20236;-81
2023/06/30 13:00:11;;;;;;;5.72;4.13;;;25.10;64.30;;;;;;10332179;28;20723;-82
2023/06/30 13:05:14;;;;;;;4.93;4.45;;;25.00;65.70;;;;;;10326213;28;20249;-81
2023/06/30 13:10:16;;;;;;;4.80;4.40;;;24.90;65.60;;;;;;10326884;28;20346;-82
2023/06/30 13:15:19;;;;;;;4.05;3.65;;;24.70;67.40;;;;;;10326785;28;20229;-81
2023/06/30 13:20:22;;;;;;;6.05;4.13;;;24.50;62.60;;;;;;10328876;28;20687;-81
2023/06/30 13:25:24;;;;;;;6.57;4.30;;;24.40;64.90;;;;;;10326774;28;20696;-80
2023/06/30 13:30:27;;;;;;;4.85;4.45;;;24.20;67.10;;;;;;10361892;28;20259;-82
2023/06/30 13:35:31;;;;;;;4.53;4.13;;;24.00;67.60;;;;;;10346878;28;20220;-82
2023/06/30 13:40:33;;;;;;;5.13;4.63;;;23.90;69.70;;;;;;10327653;28;20236;-82
2023/06/30 13:45:35;;;;;;;8.60;4.13;;;23.70;73.90;;;;;;10328094;28;20248;-81
2023/06/30 13:50:38;;;;;;;6.03;4.57;;;23.50;77.00;;;;;;10358316;28;20265;-84
2023/06/30 13:55:41;;;;;;;5.28;4.63;;;23.50;79.50;;;;;;10332903;28;20248;-82
2023/06/30 14:00:46;;;;;;;5.57;4.78;;;23.50;82.40;;;;;;10326208;28;20292;-84
2023/06/30 14:05:51;;;;;;;4.63;4.22;;;23.70;81.70;;;;;;10330113;28;20295;-86
2023/06/30 14:10:54;;;;;;;4.65;4.25;;;24.00;81.60;;;;;;10324469;28;20272;-85
2023/06/30 14:15:59;;;;;;;5.60;5.10;;;24.10;77.80;;;;;;10320659;28;20264;-85
2023/06/30 14:21:02;;;;;;;6.85;6.15;;;24.30;77.30;;;;;;10326302;28;20313;-86
2023/06/30 14:26:07;;;;;;;5.63;5.13;;;24.40;76.10;;;;;;10326245;28;20302;-86
2023/06/30 14:31:10;;;;;;;4.70;4.30;;;24.40;75.70;;;;;;10323723;28;20287;-86
2023/06/30 14:36:13;;;;;;;6.00;5.40;;;24.40;74.80;;;;;;10324897;28;20260;-82
2023/06/30 14:41:16;;;;;;;6.25;5.65;;;24.60;73.90;;;;;;10331890;28;20298;-83
2023/06/30 14:46:18;;;;;;;5.40;4.95;;;24.70;73.10;;;;;;10335246;28;20730;-82
2023/06/30 14:51:21;;;;;;;5.53;5.03;;;24.70;71.10;;;;;;10329697;28;20242;-82
2023/06/30 14:56:24;;;;;;;5.85;5.28;;;24.80;70.90;;;;;;10325274;28;20236;-82
2023/06/30 15:01:27;;;;;;;5.40;4.93;;;24.80;70.40;;;;;;10322843;28;20705;-83
2023/06/30 15:06:30;;;;;;;4.70;4.40;;;24.70;69.90;;;;;;10324249;28;20681;-82
2023/06/30 15:11:33;;;;;;;5.53;5.05;;;24.50;70.90;;;;;;10323976;28;20716;-83
2023/06/30 15:16:37;;;;;;;5.38;4.97;;;24.30;71.90;;;;;;10324175;28;20248;-82
2023/06/30 15:21:40;;;;;;;4.78;4.38;;;24.10;73.20;;;;;;10352734;28;20615;-83
2023/06/30 15:26:43;;;;;;;6.68;5.95;;;24.00;75.10;;;;;;10324129;28;20697;-82
2023/06/30 15:31:46;;;;;;;5.53;5.03;;;23.80;76.30;;;;;;10326513;28;20266;-83
2023/06/30 15:36:49;;;;;;;5.00;4.60;;;23.70;77.90;;;;;;10324295;28;20272;-83
2023/06/30 15:41:52;;;;;;;6.18;5.60;;;23.50;79.80;;;;;;10324316;28;20701;-83
2023/06/30 15:46:55;;;;;;;6.68;5.88;;;23.30;85.70;;;;;;10327917;28;20323;-83
2023/06/30 15:51:57;;;;;;;7.60;6.82;;;23.10;87.50;;;;;;10343659;28;20232;-83
2023/06/30 15:57:00;;;;;;;4.88;4.47;;;23.00;86.20;;;;;;10325582;28;20264;-83
2023/06/30 16:02:02;;;;;;;6.38;5.78;;;23.00;85.70;;;;;;10328353;28;20280;-85
2023/06/30 16:07:05;;;;;;;6.15;5.25;;;23.00;86.50;;;;;;10346011;28;20670;-84
2023/06/30 16:12:08;;;;;;;4.97;4.55;;;23.00;87.60;;;;;;10329033;28;20291;-84
2023/06/30 16:17:11;;;;;;;5.32;4.93;;;23.10;88.90;;;;;;10328979;28;20237;-83
2023/06/30 16:22:13;;;;;;;5.10;4.60;;;23.10;88.40;;;;;;10343201;28;20232;-82
2023/06/30 16:27:16;;;;;;;5.93;5.32;;;23.00;88.50;;;;;;9643973;28;10000842;-82
2023/06/30 16:32:19;;;;;;;8.63;5.72;;;22.90;89.20;;;;;;10324165;28;20244;-83
2023/06/30 16:37:21;;;;;;;9.43;6.20;;;22.70;91.40;;;;;;10325040;28;20244;-84
2023/06/30 16:42:24;;;;;;;9.82;5.97;;;22.40;91.50;;;;;;10326087;28;20563;-83
2023/06/30 16:47:27;;;;;;;7.60;6.03;;;21.90;92.50;;;;;;10325202;28;20320;-82
2023/06/30 16:52:30;;;;;;;7.90;6.30;;;22.00;93.10;;;;;;10329767;28;20279;-82
2023/06/30 16:57:33;;;;;;;6.85;6.05;;;21.90;93.50;;;;;;10348784;28;20837;-83
2023/06/30 17:02:36;;;;;;;7.30;6.30;;;21.70;94.50;;;;;;10323330;28;20676;-82
2023/06/30 17:07:39;;;;;;;6.78;5.75;;;21.60;95.00;;;;;;10322712;28;20287;-82
2023/06/30 17:12:41;;;;;;;10.43;7.10;;;21.50;95.70;;;;;;10324107;28;20271;-82
2023/06/30 17:17:44;;;;;;;8.07;5.80;;;21.40;97.30;;;;;;10322837;28;20324;-82
2023/06/30 17:22:46;;;;;;;7.78;5.97;;;21.20;97.30;;;;;;10324100;28;20236;-83
2023/06/30 17:27:49;;;;;;;9.55;6.18;;;21.20;97.70;;;;;;10322955;28;20838;-82
2023/06/30 17:32:52;;;;;;;9.52;6.88;;;21.20;98.20;;;;;;10322701;28;21102;-82
2023/06/30 17:37:55;;;;;;;7.28;6.28;;;21.00;99.20;;;;;;10323188;28;20637;-82
2023/06/30 17:42:57;;;;;;;9.07;6.85;;;21.00;99.50;;;;;;10322104;28;20233;-82
2023/06/30 17:48:00;;;;;;;6.45;5.85;;;21.00;99.90;;;;;;10320994;28;20822;-83
2023/06/30 17:53:02;;;;;;;7.35;6.53;;;21.00;99.90;;;;;;10320695;28;20229;-82
2023/06/30 17:58:06;;;;;;;9.57;7.82;;;20.80;99.90;;;;;;10325296;28;20236;-82
2023/06/30 18:03:09;;;;;;;11.13;8.52;;;20.70;99.90;;;;;;10325429;28;20704;-83
2023/06/30 18:08:12;;;;;;;11.43;8.50;;;20.70;99.90;;;;;;10325171;28;20267;-83
2023/06/30 18:13:14;;;;;;;11.52;9.10;;;20.50;99.90;;;;;;10323913;28;20264;-83
2023/06/30 18:18:17;;;;;;;7.60;6.20;;;20.50;99.90;;;;;;10324753;28;20245;-83
2023/06/30 18:23:20;;;;;;;12.48;8.52;;;20.50;99.90;;;;;;10346483;28;20298;-84
2023/06/30 18:28:22;;;;;;;11.23;9.02;;;20.50;99.90;;;;;;10325815;28;20264;-83
2023/06/30 18:33:25;;;;;;;10.98;8.48;;;20.40;99.90;;;;;;10322787;28;20770;-86
2023/06/30 18:38:27;;;;;;;6.90;5.97;;;20.50;99.90;;;;;;10333023;28;20294;-82
2023/06/30 18:43:30;;;;;;;8.02;6.85;;;20.60;99.90;;;;;;10361168;28;20239;-84
2023/06/30 18:48:34;;;;;;;10.68;8.50;;;20.60;99.90;;;;;;10351376;28;20316;-82
2023/06/30 18:53:36;;;;;;;6.68;5.93;;;20.60;99.90;;;;;;10324412;28;20704;-79
2023/06/30 18:58:39;;;;;;;8.45;7.20;;;20.70;99.90;;;;;;10324307;28;20283;-82
2023/06/30 19:03:44;;;;;;;8.50;7.00;;;20.70;99.90;;;;;;10343773;28;20252;-82
2023/06/30 19:08:47;;;;;;;6.32;5.72;;;20.60;99.90;;;;;;10327913;28;20314;-83
2023/06/30 19:13:50;;;;;;;13.10;8.60;;;20.40;99.90;;;;;;10324956;28;20299;-81
2023/06/30 19:18:54;;;;;;;12.98;9.43;;;20.40;99.90;;;;;;10326671;28;20244;-80
2023/06/30 19:23:59;;;;;;;10.43;7.85;;;20.20;99.90;;;;;;10332799;28;20257;-80
2023/06/30 19:29:02;;;;;;;7.07;6.15;;;20.10;99.90;;;;;;10333239;28;20260;-80
2023/06/30 19:34:05;;;;;;;11.27;6.38;;;20.00;99.90;;;;;;10330074;28;20606;-80
2023/06/30 19:39:07;;;;;;;8.40;7.30;;;20.00;99.90;;;;;;10348957;28;20244;-80
2023/06/30 19:44:10;;;;;;;8.90;6.70;;;20.00;99.90;;;;;;10346849;28;20754;-80
2023/06/30 19:49:12;;;;;;;13.25;9.55;;;20.20;99.90;;;;;;10343263;28;20268;-80
2023/06/30 19:54:15;;;;;;;9.88;8.70;;;20.10;99.90;;;;;;10340857;28;20296;-80
2023/06/30 19:59:17;;;;;;;14.07;9.68;;;20.10;99.90;;;;;;10345174;28;20247;-80
2023/06/30 20:04:22;;;;;;;7.93;7.13;;;20.00;99.90;;;;;;10349622;28;20252;-80
2023/06/30 20:09:25;;;;;;;11.65;8.15;;;20.00;99.90;;;;;;10330937;28;20256;-80
2023/06/30 20:14:27;;;;;;;9.57;8.07;;;19.90;99.90;;;;;;10331300;28;20244;-80
2023/06/30 20:19:30;;;;;;;9.30;7.47;;;19.90;99.90;;;;;;10328894;28;20638;-80
2023/06/30 20:24:33;;;;;;;13.20;9.52;;;19.90;99.90;;;;;;10333304;28;20244;-80
2023/06/30 20:29:35;;;;;;;10.02;7.97;;;19.90;99.90;;;;;;10328579;28;20256;-80
2023/06/30 20:34:38;;;;;;;15.52;10.10;;;19.90;99.90;;;;;;10330459;28;20742;-80
2023/06/30 20:39:42;;;;;;;8.23;7.32;;;19.90;99.90;;;;;;10329780;28;20703;-80
2023/06/30 20:44:45;;;;;;;11.07;8.07;;;19.80;99.90;;;;;;10327285;28;20261;-79
2023/06/30 20:49:47;;;;;;;15.07;10.25;;;19.70;99.90;;;;;;9978404;28;10000053;-79
2023/06/30 20:54:50;;;;;;;10.70;8.52;;;19.60;99.90;;;;;;10324822;28;20283;-80
2023/06/30 20:59:52;;;;;;;13.82;9.18;;;19.50;99.90;;;;;;10352143;28;20306;-80
2023/06/30 21:04:57;;;;;;;11.38;9.00;;;19.20;99.90;;;;;;10341579;28;20348;-80
2023/06/30 21:10:00;;;;;;;10.48;7.85;;;19.10;99.90;;;;;;10324585;28;20363;-80
2023/06/30 21:15:03;;;;;;;12.20;8.43;;;19.20;99.90;;;;;;10323150;28;20634;-80
2023/06/30 21:20:07;;;;;;;9.52;8.20;;;19.10;99.90;;;;;;10329134;28;20702;-80
2023/06/30 21:25:09;;;;;;;9.85;7.95;;;19.10;99.90;;;;;;10324066;28;20629;-80
2023/06/30 21:30:12;;;;;;;10.05;7.40;;;19.10;99.90;;;;;;10324074;28;20264;-80
2023/06/30 21:35:14;;;;;;;8.82;7.00;;;19.10;99.90;;;;;;10323056;28;20292;-80
2023/06/30 21:40:17;;;;;;;6.65;5.53;;;19.10;99.90;;;;;;10321972;28;20334;-80
2023/06/30 21:45:20;;;;;;;9.93;6.75;;;19.10;99.90;;;;;;10322434;28;20298;-80
2023/06/30 21:50:22;;;;;;;9.18;4.85;;;19.10;99.90;;;;;;10322772;28;20691;-80
2023/06/30 21:55:25;;;;;;;11.15;6.57;;;19.00;99.90;;;;;;10341211;28;20302;-81
2023/06/30 22:00:28;;;;;;;9.07;6.38;;;18.90;99.90;;;;;;10342635;28;20784;-80
2023/06/30 22:05:30;;;;;;;7.88;5.07;;;18.80;99.90;;;;;;10363058;28;20252;-82
2023/06/30 22:10:33;;;;;;;6.43;5.22;;;18.70;99.90;;;;;;10324348;28;20714;-80
2023/06/30 22:15:35;;;;;;;4.47;4.07;;;18.70;99.90;;;;;;10322527;28;20786;-79
2023/06/30 22:20:38;;;;;;;8.60;6.57;;;18.80;99.90;;;;;;10326657;28;20338;-80
2023/06/30 22:25:40;;;;;;;7.70;6.68;;;18.70;99.90;;;;;;10325296;28;20331;-80
2023/06/30 22:30:45;;;;;;;8.98;6.40;;;18.70;99.90;;;;;;10323732;28;20280;-81
2023/06/30 22:35:48;;;;;;;7.35;6.00;;;18.60;99.90;;;;;;10323695;28;20260;-81
2023/06/30 22:40:53;;;;;;;5.90;5.32;;;18.70;99.90;;;;;;10332085;28;20294;-81
2023/06/30 22:45:55;;;;;;;10.00;6.32;;;18.80;99.90;;;;;;10360464;28;20272;-81
2023/06/30 22:50:58;;;;;;;8.98;6.40;;;18.80;99.90;;;;;;10326169;28;20326;-81
2023/06/30 22:56:02;;;;;;;8.63;7.13;;;18.80;99.90;;;;;;10341096;28;20239;-81
2023/06/30 23:01:07;;;;;;;9.57;6.78;;;18.80;99.90;;;;;;10335007;28;20315;-80
2023/06/30 23:06:10;;;;;;;5.90;5.15;;;18.90;99.90;;;;;;10333693;28;20356;-80
2023/06/30 23:11:13;;;;;;;6.15;5.53;;;18.90;99.90;;;;;;10332980;28;20276;-80
2023/06/30 23:16:16;;;;;;;8.57;7.20;;;18.90;99.90;;;;;;10332001;28;20245;-80
2023/06/30 23:21:19;;;;;;;6.63;5.75;;;18.90;99.90;;;;;;10334063;28;20245;-80
2023/06/30 23:26:23;;;;;;;8.27;6.60;;;18.90;99.90;;;;;;10331338;28;20307;-80
2023/06/30 23:31:26;;;;;;;7.63;6.22;;;19.00;99.90;;;;;;10332709;28;20269;-80
2023/06/30 23:36:31;;;;;;;5.68;5.07;;;18.90;99.90;;;;;;10331708;28;20644;-80
2023/06/30 23:41:33;;;;;;;6.65;5.97;;;18.90;99.90;;;;;;10364773;28;20251;-80
2023/06/30 23:46:36;;;;;;;7.20;5.50;;;19.00;99.90;;;;;;10337087;28;20261;-80
2023/06/30 23:51:39;;;;;;;7.72;6.00;;;19.00;99.90;;;;;;10332392;28;20283;-80
2023/06/30 23:56:42;;;;;;;4.95;4.55;;;19.00;99.90;;;;;;10329644;28;20281;-80
